Аэропорт: Брест-2. Брест

ICAO: UMBB

METAR:
Информация по данной станции не доступна
METAR:
2022-06-26 11:00:00
TAF UMBB 261100Z 2612/2621 11003MPS 9999 SCT030 TX30/2613Z TN21/2621Z TEMPO 2612/2616 12004G09MPS